Time;durP1;ratioP1;P1;durP2;ratioP2;P2;SDS_P1;SDS_P2;PMS_P1;PMS_P2;Temp;Humidity;BMP_temperature;BMP_pressure;BME280_temperature;BME280_humidity;BME280_pressure;Samples;Min_cycle;Max_cycle;Signal;HPM_P1;HPM_P2
2021/10/02 00:47:04;;;;;;;;;;;;;;;6.78;98.45;99551.38;5042669;28;19916;-68
2021/10/02 00:49:29;;;;;;;;;;;;;;;6.75;98.35;99557.91;5012855;28;20367;-69
2021/10/02 00:51:55;;;;;;;;;;;;;;;6.75;98.76;99554.41;5021344;28;20358;-66
2021/10/02 00:54:21;;;;;;;;;;;;;;;6.75;98.53;99547.22;5024280;28;19999;-67
2021/10/02 00:56:46;;;;;;;;;;;;;;;6.71;98.09;99535.22;5019366;28;20414;-68
2021/10/02 00:59:12;;;;;;;;;;;;;;;6.70;98.17;99527.41;5013543;28;19916;-68
2021/10/02 01:01:44;;;;;;;;;;;;;;;6.65;98.19;99522.59;5010607;28;19929;-67
2021/10/02 01:04:12;;;;;;;;;;;;;;;6.66;99.30;99520.75;5011949;28;20385;-66
2021/10/02 01:07:01;;;;;;;;;;;;;;;6.70;99.12;99508.72;5050239;28;19928;-70
2021/10/02 01:09:27;;;;;;;;;;;;;;;6.78;99.33;99492.59;5024299;28;19921;-66
2021/10/02 01:11:52;;;;;;;;;;;;;;;6.87;99.74;99486.16;5031343;28;19917;-67
2021/10/02 01:14:27;;;;;;;;;;;;;;;6.96;99.65;99484.22;5049746;28;20011;-67
2021/10/02 01:16:54;;;;;;;;;;;;;;;7.04;99.40;99476.94;5020234;28;20385;-66
2021/10/02 01:19:27;;;;;;;;;;;;;;;7.09;99.23;99478.22;5022087;28;19921;-69
2021/10/02 01:22:12;;;;;;;;;;;;;;;7.12;98.61;99473.34;5016566;28;19970;-68
2021/10/02 01:24:37;;;;;;;;;;;;;;;7.21;99.07;99461.53;5032914;28;19916;-66
2021/10/02 01:27:21;;;;;;;;;;;;;;;7.25;98.85;99445.94;5033895;28;19971;-69
2021/10/02 01:29:47;;;;;;;;;;;;;;;7.33;98.81;99432.50;5043471;28;19916;-69
2021/10/02 01:32:24;;;;;;;;;;;;;;;7.39;98.64;99434.41;5051582;28;19917;-67
2021/10/02 01:48:15;;;;;;;;;;;;;;;7.70;96.88;99390.53;5032832;28;19909;-67
2021/10/02 01:50:41;;;;;;;;;;;;;;;7.75;96.41;99387.25;5008149;28;20370;-66
2021/10/02 01:53:07;;;;;;;;;;;;;;;7.79;95.38;99380.50;5047013;28;19955;-67
2021/10/02 01:55:33;;;;;;;;;;;;;;;7.80;95.60;99363.41;5030605;28;19916;-68
2021/10/02 01:58:01;;;;;;;;;;;;;;;7.83;95.39;99361.22;5014886;28;19913;-67
2021/10/02 02:00:27;;;;;;;;;;;;;;;7.85;95.26;99351.13;5010234;28;21570;-68
2021/10/02 02:02:55;;;;;;;;;;;;;;;7.87;95.06;99333.03;5018204;28;19912;-67
2021/10/02 02:05:21;;;;;;;;;;;;;;;7.91;94.74;99328.09;5015973;28;19970;-69
2021/10/02 02:07:53;;;;;;;;;;;;;;;7.93;94.19;99320.72;5030759;28;19963;-67
2021/10/02 02:10:20;;;;;;;;;;;;;;;7.96;93.82;99312.28;5033560;28;19960;-67
2021/10/02 02:12:46;;;;;;;;;;;;;;;7.97;93.35;99311.28;5021194;28;19913;-67
2021/10/02 02:15:12;;;;;;;;;;;;;;;7.99;92.99;99303.91;5023616;28;19916;-68
2021/10/02 02:17:42;;;;;;;;;;;;;;;8.00;92.89;99300.19;5017652;28;19947;-66
2021/10/02 02:20:09;;;;;;;;;;;;;;;8.00;92.80;99300.19;5014345;28;19925;-66
2021/10/02 02:22:34;;;;;;;;;;;;;;;8.05;92.20;99289.72;5034659;28;19920;-68
2021/10/02 02:25:00;;;;;;;;;;;;;;;8.07;92.14;99271.63;5011815;28;20277;-67
2021/10/02 02:27:25;;;;;;;;;;;;;;;8.08;91.47;99269.78;5035349;28;19995;-70
2021/10/02 02:29:51;;;;;;;;;;;;;;;8.08;91.98;99251.03;5020341;28;19920;-68
2021/10/02 02:32:21;;;;;;;;;;;;;;;8.08;91.94;99243.00;5019799;28;19950;-67
2021/10/02 02:34:46;;;;;;;;;;;;;;;8.04;91.67;99233.69;5056538;28;19916;-67
2021/10/02 02:37:12;;;;;;;;;;;;;;;8.01;91.14;99224.22;5048227;28;19923;-66
2021/10/02 02:39:38;;;;;;;;;;;;;;;7.98;92.68;99213.09;5012760;28;19929;-67
2021/10/02 02:42:04;;;;;;;;;;;;;;;7.97;92.68;99193.53;5038664;28;19938;-71
2021/10/02 02:44:29;;;;;;;;;;;;;;;7.97;92.39;99193.53;5039954;28;19921;-69
2021/10/02 02:46:57;;;;;;;;;;;;;;;7.96;92.59;99185.69;5012661;28;19928;-67
2021/10/02 02:49:44;;;;;;;;;;;;;;;7.95;92.57;99171.47;5022201;28;19917;-68
2021/10/02 02:52:20;;;;;;;;;;;;;;;7.99;92.74;99169.22;5051479;28;19923;-66
2021/10/02 02:54:45;;;;;;;;;;;;;;;8.01;92.48;99168.00;5022534;28;19999;-66
2021/10/02 02:57:12;;;;;;;;;;;;;;;8.01;92.40;99159.97;5033769;28;20455;-66
2021/10/02 02:59:40;;;;;;;;;;;;;;;8.04;92.83;99162.25;5053421;28;19917;-66
2021/10/02 03:02:06;;;;;;;;;;;;;;;8.04;92.89;99151.53;5015467;28;19917;-66
2021/10/02 03:04:32;;;;;;;;;;;;;;;8.05;92.77;99137.16;5014984;28;20438;-66
2021/10/02 03:06:58;;;;;;;;;;;;;;;8.05;92.97;99130.97;5029624;28;19924;-67
2021/10/02 03:09:23;;;;;;;;;;;;;;;8.10;93.32;99126.66;5022508;28;19999;-66
2021/10/02 03:11:50;;;;;;;;;;;;;;;8.10;93.69;99121.31;5016745;28;20007;-69
2021/10/02 03:14:18;;;;;;;;;;;;;;;8.12;93.75;99108.56;5059096;28;19923;-66
2021/10/02 03:16:44;;;;;;;;;;;;;;;8.13;94.04;99101.34;5018711;28;19919;-67
2021/10/02 03:19:09;;;;;;;;;;;;;;;8.12;93.89;99091.66;5049743;28;19928;-66
2021/10/02 03:21:35;;;;;;;;;;;;;;;8.10;94.06;99085.69;5051838;28;20335;-68
2021/10/02 03:24:02;;;;;;;;;;;;;;;8.10;94.33;99070.44;5061725;28;20333;-66
2021/10/02 03:26:28;;;;;;;;;;;;;;;8.09;94.61;99057.25;5022293;28;19934;-67
2021/10/02 03:28:55;;;;;;;;;;;;;;;8.12;95.40;99048.81;5034081;28;19976;-66
2021/10/02 03:31:20;;;;;;;;;;;;;;;8.22;95.53;99040.41;5059310;28;19940;-66
2021/10/02 03:33:46;;;;;;;;;;;;;;;8.28;94.69;99027.06;5028226;28;19926;-69
2021/10/02 03:36:11;;;;;;;;;;;;;;;8.32;94.99;99022.09;5052425;28;20934;-68
2021/10/02 03:38:37;;;;;;;;;;;;;;;8.35;95.00;99009.13;5051600;28;20319;-66
2021/10/02 03:41:03;;;;;;;;;;;;;;;8.40;95.01;99003.19;5049337;28;19924;-69
2021/10/02 03:43:29;;;;;;;;;;;;;;;8.43;95.33;98991.25;5056133;28;20405;-67
2021/10/02 03:45:55;;;;;;;;;;;;;;;8.44;95.72;98987.53;5033731;28;19924;-67
2021/10/02 03:48:21;;;;;;;;;;;;;;;8.45;95.91;98976.63;5016915;28;19916;-67
2021/10/02 03:50:46;;;;;;;;;;;;;;;8.47;96.21;98965.72;5056978;28;19916;-67
2021/10/02 03:53:12;;;;;;;;;;;;;;;8.46;96.25;98956.00;5039113;28;20277;-66
2021/10/02 03:55:37;;;;;;;;;;;;;;;8.45;96.41;98952.50;5020054;28;19909;-68
2021/10/02 03:58:03;;;;;;;;;;;;;;;8.44;97.13;98950.88;5024276;28;19920;-67
2021/10/02 04:00:28;;;;;;;;;;;;;;;8.42;96.80;98930.69;5032288;28;19938;-68
2021/10/02 04:02:54;;;;;;;;;;;;;;;8.42;97.59;98938.72;5025112;28;19920;-70
2021/10/02 04:05:20;;;;;;;;;;;;;;;8.45;97.71;98931.09;5022144;28;19917;-70
2021/10/02 04:07:45;;;;;;;;;;;;;;;8.46;97.46;98930.03;5029301;28;19913;-69
2021/10/02 04:10:11;;;;;;;;;;;;;;;8.46;97.33;98918.50;5055174;28;19943;-68
2021/10/02 04:12:36;;;;;;;;;;;;;;;8.43;97.91;98909.03;5025282;28;19916;-70
2021/10/02 04:15:02;;;;;;;;;;;;;;;8.42;98.02;98902.03;5015859;28;19917;-66
2021/10/02 04:17:28;;;;;;;;;;;;;;;8.44;98.48;98888.44;5013719;28;20366;-68
2021/10/02 04:19:53;;;;;;;;;;;;;;;8.43;98.61;98878.75;5015448;28;19912;-68
2021/10/02 04:22:19;;;;;;;;;;;;;;;8.40;98.50;98866.59;5023847;28;20032;-68
2021/10/02 04:24:44;;;;;;;;;;;;;;;8.38;98.92;98866.75;5017927;28;19975;-67
2021/10/02 04:27:11;;;;;;;;;;;;;;;8.37;98.09;98861.63;5049185;28;20149;-66
2021/10/02 04:29:36;;;;;;;;;;;;;;;8.33;98.76;98849.69;5018643;28;20321;-68
2021/10/02 04:32:02;;;;;;;;;;;;;;;8.30;98.86;98845.56;5016933;28;19954;-66
2021/10/02 04:34:28;;;;;;;;;;;;;;;8.30;98.69;98834.84;5017496;28;20255;-67
2021/10/02 04:36:53;;;;;;;;;;;;;;;8.32;98.83;98826.63;5018465;28;19924;-68
2021/10/02 04:39:19;;;;;;;;;;;;;;;8.30;99.38;98824.13;5016156;28;19917;-67
2021/10/02 04:41:44;;;;;;;;;;;;;;;8.31;99.67;98819.63;5018760;28;19916;-66
2021/10/02 04:44:10;;;;;;;;;;;;;;;8.32;100.00;98816.72;5014567;28;19921;-69
2021/10/02 04:46:35;;;;;;;;;;;;;;;8.38;100.00;98809.72;5012534;28;19917;-66
2021/10/02 04:49:01;;;;;;;;;;;;;;;8.46;100.00;98792.63;5044657;28;19964;-67
2021/10/02 04:51:26;;;;;;;;;;;;;;;8.50;100.00;98794.69;5012267;28;20066;-66
2021/10/02 04:53:52;;;;;;;;;;;;;;;8.53;100.00;98788.91;5045425;28;20358;-71
2021/10/02 04:56:20;;;;;;;;;;;;;;;8.53;100.00;98775.50;5051772;28;19916;-67
2021/10/02 04:58:46;;;;;;;;;;;;;;;8.56;100.00;98775.06;5015653;28;19931;-67
2021/10/02 05:01:11;;;;;;;;;;;;;;;8.57;100.00;98767.84;5015145;28;19920;-67
2021/10/02 05:03:38;;;;;;;;;;;;;;;8.56;100.00;98768.91;5017651;28;19919;-67
2021/10/02 05:06:08;;;;;;;;;;;;;;;8.48;100.00;98751.22;5014354;28;19940;-66
2021/10/02 05:08:34;;;;;;;;;;;;;;;8.56;100.00;98755.50;5022256;28;19966;-66
2021/10/02 05:11:00;;;;;;;;;;;;;;;8.56;100.00;98752.84;5028585;28;19917;-68
2021/10/02 05:13:26;;;;;;;;;;;;;;;8.55;100.00;98751.19;5013578;28;19912;-66
2021/10/02 05:15:52;;;;;;;;;;;;;;;8.49;100.00;98744.81;5023347;28;19971;-67
2021/10/02 05:18:18;;;;;;;;;;;;;;;8.41;99.67;98745.03;5016029;28;19924;-68
2021/10/02 05:20:44;;;;;;;;;;;;;;;8.31;100.00;98745.47;5050309;28;20364;-66
2021/10/02 05:23:10;;;;;;;;;;;;;;;8.24;100.00;98744.66;5033141;28;20367;-66
2021/10/02 05:25:35;;;;;;;;;;;;;;;8.22;100.00;98736.00;5013315;28;19963;-66
2021/10/02 05:28:02;;;;;;;;;;;;;;;8.22;100.00;98735.19;5018672;28;19927;-69
2021/10/02 05:30:28;;;;;;;;;;;;;;;8.21;100.00;98736.25;5015103;28;20003;-66
2021/10/02 05:32:54;;;;;;;;;;;;;;;8.17;100.00;98733.13;5013258;28;20381;-68
2021/10/02 05:35:19;;;;;;;;;;;;;;;8.18;100.00;98729.44;5055414;28;20368;-66
2021/10/02 05:37:46;;;;;;;;;;;;;;;8.19;100.00;98732.94;5016019;28;19916;-67
2021/10/02 05:40:11;;;;;;;;;;;;;;;8.21;100.00;98728.22;5021311;28;20030;-66
2021/10/02 05:42:37;;;;;;;;;;;;;;;8.23;100.00;98729.66;5019213;28;19951;-66
2021/10/02 05:45:03;;;;;;;;;;;;;;;8.26;100.00;98726.53;5013096;28;20269;-66
2021/10/02 05:47:28;;;;;;;;;;;;;;;8.32;100.00;98724.88;5029253;28;20518;-68
2021/10/02 05:49:54;;;;;;;;;;;;;;;8.35;100.00;98719.91;5043134;28;20143;-68
2021/10/02 05:52:20;;;;;;;;;;;;;;;8.41;100.00;98718.25;5047354;28;20293;-69
2021/10/02 05:54:46;;;;;;;;;;;;;;;8.45;100.00;98722.19;5013589;28;19966;-66
2021/10/02 05:57:11;;;;;;;;;;;;;;;8.49;100.00;98714.53;5051492;28;19913;-66
2021/10/02 05:59:37;;;;;;;;;;;;;;;8.52;100.00;98711.41;5015405;28;20445;-67
2021/10/02 06:02:02;;;;;;;;;;;;;;;8.52;100.00;98698.88;5036175;28;19970;-69
2021/10/02 06:04:28;;;;;;;;;;;;;;;8.54;100.00;98704.00;5017638;28;19917;-68
2021/10/02 06:06:53;;;;;;;;;;;;;;;8.51;100.00;98696.41;5018898;28;19982;-66
2021/10/02 06:09:19;;;;;;;;;;;;;;;8.48;100.00;98688.78;5040061;28;20269;-67
2021/10/02 06:11:45;;;;;;;;;;;;;;;8.47;100.00;98673.78;5023515;28;19921;-69
2021/10/02 06:14:10;;;;;;;;;;;;;;;8.46;100.00;98672.91;5018237;28;20399;-66
2021/10/02 06:16:38;;;;;;;;;;;;;;;8.43;100.00;98677.91;5048359;28;19916;-67
2021/10/02 06:19:04;;;;;;;;;;;;;;;8.41;100.00;98672.75;5015260;28;19928;-66
2021/10/02 06:21:29;;;;;;;;;;;;;;;8.40;100.00;98660.38;5027321;28;19918;-68
2021/10/02 06:24:01;;;;;;;;;;;;;;;8.39;100.00;98661.44;5036792;28;19916;-67
2021/10/02 06:26:27;;;;;;;;;;;;;;;8.38;100.00;98657.06;5041678;28;19923;-66
2021/10/02 06:28:52;;;;;;;;;;;;;;;8.37;100.00;98661.59;5015729;28;19925;-66
2021/10/02 06:31:18;;;;;;;;;;;;;;;8.35;100.00;98658.31;5016666;28;19928;-68
2021/10/02 06:33:44;;;;;;;;;;;;;;;8.36;100.00;98656.44;5049780;28;20286;-67
2021/10/02 06:36:09;;;;;;;;;;;;;;;8.33;100.00;98652.34;5026235;28;19947;-68
2021/10/02 06:38:35;;;;;;;;;;;;;;;8.32;100.00;98650.72;5034554;28;19917;-67
2021/10/02 06:41:01;;;;;;;;;;;;;;;8.34;100.00;98658.53;5022246;28;19928;-69
2021/10/02 06:43:26;;;;;;;;;;;;;;;8.36;100.00;98651.09;5037671;28;19923;-67
2021/10/02 06:45:52;;;;;;;;;;;;;;;8.38;100.00;98649.03;5035388;28;19909;-67
2021/10/02 06:48:17;;;;;;;;;;;;;;;8.39;100.00;98642.69;5013760;28;19921;-67
2021/10/02 06:50:43;;;;;;;;;;;;;;;8.41;100.00;98645.13;5018803;28;19983;-68
2021/10/02 06:53:08;;;;;;;;;;;;;;;8.42;100.00;98641.44;5056919;28;19925;-68
2021/10/02 06:55:34;;;;;;;;;;;;;;;8.43;100.00;98640.41;5023734;28;20008;-66
2021/10/02 06:57:59;;;;;;;;;;;;;;;8.42;100.00;98634.22;5025315;28;20393;-66
2021/10/02 07:00:25;;;;;;;;;;;;;;;8.40;100.00;98633.63;5054240;28;19917;-67
2021/10/02 07:02:50;;;;;;;;;;;;;;;8.40;100.00;98635.47;5022196;28;20369;-66
2021/10/02 07:05:16;;;;;;;;;;;;;;;8.40;100.00;98635.47;5026873;28;19928;-68
2021/10/02 07:07:42;;;;;;;;;;;;;;;8.41;100.00;98623.72;5022836;28;19916;-67
2021/10/02 07:10:08;;;;;;;;;;;;;;;8.41;100.00;98616.50;5019458;28;19913;-68
2021/10/02 07:12:34;;;;;;;;;;;;;;;8.42;100.00;98622.69;5010643;28;19923;-68
2021/10/02 07:15:00;;;;;;;;;;;;;;;8.45;100.00;98616.91;5022411;28;20039;-72
2021/10/02 07:17:26;;;;;;;;;;;;;;;8.47;100.00;98615.66;5021986;28;20344;-66
2021/10/02 07:19:51;;;;;;;;;;;;;;;8.51;100.00;98618.72;5019234;28;19925;-69
2021/10/02 07:22:17;;;;;;;;;;;;;;;8.53;100.00;98611.31;5010888;28;20393;-69
2021/10/02 07:24:42;;;;;;;;;;;;;;;8.54;100.00;98616.41;5044206;28;19967;-67
2021/10/02 07:27:08;;;;;;;;;;;;;;;8.53;100.00;98620.16;5042641;28;20003;-67
2021/10/02 07:29:34;;;;;;;;;;;;;;;8.53;100.00;98622.00;5047160;28;19971;-67
2021/10/02 07:31:59;;;;;;;;;;;;;;;8.54;100.00;98615.59;5014735;28;19921;-66
2021/10/02 07:34:25;;;;;;;;;;;;;;;8.53;100.00;98619.34;5049417;28;19917;-68
2021/10/02 07:36:50;;;;;;;;;;;;;;;8.54;100.00;98618.28;5013082;28;20000;-66
2021/10/02 07:39:16;;;;;;;;;;;;;;;8.55;100.00;98622.63;5041700;28;19917;-68
2021/10/02 07:41:44;;;;;;;;;;;;;;;8.53;100.00;98609.44;5015375;28;19928;-66
2021/10/02 07:44:10;;;;;;;;;;;;;;;8.56;100.00;98613.53;5038939;28;19923;-68
2021/10/02 07:46:36;;;;;;;;;;;;;;;8.56;100.00;98630.44;5023082;28;19917;-68
2021/10/02 07:49:02;;;;;;;;;;;;;;;8.57;100.00;98625.88;5012299;28;19949;-66
2021/10/02 07:51:27;;;;;;;;;;;;;;;8.57;100.00;98620.53;5018880;28;19916;-66
2021/10/02 07:53:53;;;;;;;;;;;;;;;8.58;100.00;98623.00;5017542;28;19917;-68
2021/10/02 07:56:19;;;;;;;;;;;;;;;8.58;100.00;98620.31;5043799;28;20376;-69
2021/10/02 07:58:48;;;;;;;;;;;;;;;8.61;100.00;98613.72;5045321;28;19917;-66
2021/10/02 08:01:18;;;;;;;;;;;;;;;8.66;100.00;98615.75;5022355;28;20366;-68
2021/10/02 08:03:44;;;;;;;;;;;;;;;8.73;100.00;98611.16;5049333;28;19917;-68
2021/10/02 08:06:09;;;;;;;;;;;;;;;8.77;100.00;98615.88;5016629;28;19970;-67
2021/10/02 08:08:35;;;;;;;;;;;;;;;8.88;100.00;98614.34;5027962;28;19917;-70
2021/10/02 08:11:01;;;;;;;;;;;;;;;9.04;100.00;98615.69;5010796;28;19921;-67
2021/10/02 08:13:26;;;;;;;;;;;;;;;9.27;100.00;98611.59;5039296;28;20444;-66
2021/10/02 08:15:56;;;;;;;;;;;;;;;9.44;100.00;98609.97;5018557;28;19917;-69
2021/10/02 08:18:21;;;;;;;;;;;;;;;9.58;100.00;98608.81;5027637;28;20317;-68
2021/10/02 08:20:47;;;;;;;;;;;;;;;9.74;100.00;98614.63;5014863;28;19928;-67
2021/10/02 08:23:16;;;;;;;;;;;;;;;9.78;100.00;98610.47;5022362;28;19917;-66
2021/10/02 08:25:47;;;;;;;;;;;;;;;10.04;98.54;98604.78;5048857;28;19921;-70
2021/10/02 08:28:13;;;;;;;;;;;;;;;10.21;97.95;98601.47;5023892;28;19921;-67
2021/10/02 08:30:39;;;;;;;;;;;;;;;10.10;98.19;98608.44;5038064;28;20373;-67
2021/10/02 08:33:06;;;;;;;;;;;;;;;9.96;98.05;98610.47;5010955;28;19917;-68
2021/10/02 08:35:31;;;;;;;;;;;;;;;9.88;97.94;98605.41;5016113;28;19982;-66
2021/10/02 08:37:57;;;;;;;;;;;;;;;9.83;97.43;98613.28;5019947;28;20034;-67
2021/10/02 08:40:23;;;;;;;;;;;;;;;9.76;97.50;98609.84;5028574;28;19939;-67
2021/10/02 08:42:49;;;;;;;;;;;;;;;9.68;97.43;98605.59;5038723;28;19983;-66
2021/10/02 08:45:14;;;;;;;;;;;;;;;9.57;97.84;98609.84;5019542;28;20500;-71
2021/10/02 08:47:41;;;;;;;;;;;;;;;9.46;98.01;98607.88;5022102;28;19929;-67
2021/10/02 08:50:07;;;;;;;;;;;;;;;9.44;97.34;98604.59;5034664;28;19967;-69
2021/10/02 08:52:33;;;;;;;;;;;;;;;9.53;96.94;98602.47;5041245;28;19924;-66
2021/10/02 08:54:59;;;;;;;;;;;;;;;11.71;89.70;98588.81;5025434;28;19917;-68
2021/10/02 08:57:25;;;;;;;;;;;;;;;14.06;81.47;98590.97;5017695;28;19921;-67
2021/10/02 08:59:51;;;;;;;;;;;;;;;15.41;77.68;98585.78;5056035;28;20248;-67
2021/10/02 09:02:17;;;;;;;;;;;;;;;15.58;77.45;98583.72;5025216;28;19928;-68
2021/10/02 09:04:44;;;;;;;;;;;;;;;16.60;74.50;98583.34;5018401;28;19990;-67
2021/10/02 09:07:09;;;;;;;;;;;;;;;17.32;71.34;98590.47;5031524;28;19983;-67
2021/10/02 09:09:35;;;;;;;;;;;;;;;17.81;68.97;98583.66;5020794;28;20247;-70
2021/10/02 09:12:02;;;;;;;;;;;;;;;18.10;67.08;98580.25;5042518;28;19921;-68
2021/10/02 09:14:28;;;;;;;;;;;;;;;17.68;68.09;98586.91;5011667;28;19923;-71
2021/10/02 09:16:55;;;;;;;;;;;;;;;17.42;67.38;98578.78;5047746;28;20619;-68
2021/10/02 09:19:20;;;;;;;;;;;;;;;17.94;64.96;98577.63;5026705;28;19923;-68
2021/10/02 09:21:57;;;;;;;;;;;;;;;18.43;63.04;98565.94;5032756;28;19920;-68
2021/10/02 09:24:27;;;;;;;;;;;;;;;18.79;60.84;98576.66;5015219;28;19917;-68
2021/10/02 09:26:53;;;;;;;;;;;;;;;19.01;60.19;98564.50;5045357;28;19917;-70
2021/10/02 09:29:18;;;;;;;;;;;;;;;18.96;59.52;98562.63;5033964;28;19923;-67
2021/10/02 09:31:44;;;;;;;;;;;;;;;19.37;58.27;98575.09;5013850;28;19929;-70
2021/10/02 09:34:24;;;;;;;;;;;;;;;18.86;58.53;98557.25;5055964;28;19924;-67
2021/10/02 09:36:49;;;;;;;;;;;;;;;19.17;57.44;98552.38;5047397;28;19920;-69
2021/10/02 09:39:16;;;;;;;;;;;;;;;18.95;57.56;98543.88;5040213;28;19982;-70
2021/10/02 09:41:49;;;;;;;;;;;;;;;19.29;56.35;98544.66;5022894;28;20369;-68
2021/10/02 09:44:21;;;;;;;;;;;;;;;18.87;56.74;98537.94;5012539;28;19921;-68
2021/10/02 09:46:47;;;;;;;;;;;;;;;18.19;57.20;98535.88;5032268;28;19916;-68
2021/10/02 09:49:12;;;;;;;;;;;;;;;16.55;60.67;98534.50;5015204;28;20000;-69
2021/10/02 09:51:39;;;;;;;;;;;;;;;16.99;59.67;98534.84;5017985;28;19924;-67
2021/10/02 09:54:04;;;;;;;;;;;;;;;15.61;63.20;98531.72;5014013;28;19917;-68
2021/10/02 09:56:30;;;;;;;;;;;;;;;14.66;65.27;98535.13;5025881;28;20312;-68
2021/10/02 09:58:55;;;;;;;;;;;;;;;14.68;65.33;98527.56;5016484;28;19959;-69
2021/10/02 10:01:22;;;;;;;;;;;;;;;14.78;64.71;98534.16;5026769;28;20330;-70
2021/10/02 10:03:48;;;;;;;;;;;;;;;14.53;64.71;98532.84;5015455;28;20349;-70
2021/10/02 10:06:16;;;;;;;;;;;;;;;14.42;64.61;98536.47;5034611;28;19916;-69
2021/10/02 10:08:42;;;;;;;;;;;;;;;14.27;64.98;98526.34;5036210;28;19947;-68
2021/10/02 10:11:09;;;;;;;;;;;;;;;13.99;66.43;98533.59;5007507;28;20377;-70
2021/10/02 10:13:35;;;;;;;;;;;;;;;13.80;63.04;98529.59;5016615;28;19944;-70
2021/10/02 10:16:01;;;;;;;;;;;;;;;13.41;64.96;98540.41;5014339;28;19998;-66
2021/10/02 10:18:26;;;;;;;;;;;;;;;12.84;67.93;98535.22;5049505;28;19964;-68
2021/10/02 10:20:52;;;;;;;;;;;;;;;13.26;67.37;98526.66;5047470;28;19923;-68
2021/10/02 10:23:33;;;;;;;;;;;;;;;12.54;69.46;98522.81;5039921;28;20332;-68
2021/10/02 10:26:09;;;;;;;;;;;;;;;12.97;69.28;98518.69;5039729;28;19917;-69
2021/10/02 10:28:36;;;;;;;;;;;;;;;14.60;64.18;98508.28;5038244;28;19913;-69
2021/10/02 10:31:08;;;;;;;;;;;;;;;15.53;61.77;98502.44;5016714;28;19936;-69
2021/10/02 10:33:34;;;;;;;;;;;;;;;15.49;62.80;98501.34;5030194;28;19943;-70
2021/10/02 10:36:00;;;;;;;;;;;;;;;16.13;60.57;98492.94;5010070;28;19924;-67
2021/10/02 10:38:25;;;;;;;;;;;;;;;16.47;60.31;98492.47;5008114;28;20328;-67
2021/10/02 10:40:51;;;;;;;;;;;;;;;16.57;60.38;98497.91;5016432;28;20366;-69
2021/10/02 10:43:17;;;;;;;;;;;;;;;16.29;60.49;98490.25;5013351;28;19948;-68
2021/10/02 10:45:43;;;;;;;;;;;;;;;16.77;58.98;98491.66;5022409;28;20344;-69
2021/10/02 10:48:09;;;;;;;;;;;;;;;16.93;58.55;98481.63;5025548;28;20289;-68
2021/10/02 10:50:37;;;;;;;;;;;;;;;15.94;61.65;98487.19;5016029;28;19917;-68
2021/10/02 10:53:03;;;;;;;;;;;;;;;15.05;64.43;98469.13;5033709;28;19916;-66
2021/10/02 10:55:28;;;;;;;;;;;;;;;14.60;66.37;98475.84;5013204;28;19963;-69
2021/10/02 10:57:55;;;;;;;;;;;;;;;14.35;67.23;98474.50;5013898;28;19925;-71
2021/10/02 11:00:42;;;;;;;;;;;;;;;14.35;67.56;98473.69;5023384;28;19920;-68
2021/10/02 11:03:08;;;;;;;;;;;;;;;14.72;67.04;98477.28;5032454;28;19952;-69
2021/10/02 11:05:38;;;;;;;;;;;;;;;14.49;67.04;98480.31;5035636;28;19919;-68
2021/10/02 11:08:08;;;;;;;;;;;;;;;14.03;68.49;98472.56;5034790;28;19916;-67
2021/10/02 11:10:42;;;;;;;;;;;;;;;13.74;67.99;98480.09;5026435;28;19917;-70
2021/10/02 11:13:08;;;;;;;;;;;;;;;13.34;67.71;98477.69;5034207;28;20000;-67
2021/10/02 11:15:36;;;;;;;;;;;;;;;13.06;68.32;98490.22;5024978;28;19920;-67
2021/10/02 11:18:01;;;;;;;;;;;;;;;12.72;70.97;98476.75;5015160;28;19920;-66
2021/10/02 11:20:34;;;;;;;;;;;;;;;12.29;72.09;98482.78;5018546;28;19917;-68
2021/10/02 11:23:20;;;;;;;;;;;;;;;11.96;73.25;98472.75;5020632;28;20418;-68
2021/10/02 11:25:45;;;;;;;;;;;;;;;11.72;74.63;98478.19;5037598;28;19936;-67
2021/10/02 11:28:20;;;;;;;;;;;;;;;11.58;75.12;98471.44;5029749;28;19921;-67
2021/10/02 11:30:46;;;;;;;;;;;;;;;11.58;75.70;98471.44;5040298;28;19913;-66
2021/10/02 11:33:27;;;;;;;;;;;;;;;11.48;76.56;98473.91;5024060;28;19974;-66
2021/10/02 11:35:53;;;;;;;;;;;;;;;11.68;75.97;98462.75;5054183;28;20417;-70
2021/10/02 11:38:33;;;;;;;;;;;;;;;11.89;76.01;98470.22;5011063;28;20019;-68
2021/10/02 11:41:00;;;;;;;;;;;;;;;12.21;74.96;98472.41;5028548;28;19913;-69
2021/10/02 11:43:26;;;;;;;;;;;;;;;12.54;74.10;98467.06;5028776;28;19948;-66
2021/10/02 11:45:54;;;;;;;;;;;;;;;12.88;73.17;98464.31;5026969;28;19964;-67
2021/10/02 11:48:40;;;;;;;;;;;;;;;13.18;71.33;98461.25;5036022;28;20319;-67
2021/10/02 11:51:14;;;;;;;;;;;;;;;13.49;70.61;98450.88;5028631;28;19913;-68
2021/10/02 11:53:43;;;;;;;;;;;;;;;13.82;69.36;98457.22;5025551;28;20354;-68
2021/10/02 11:56:15;;;;;;;;;;;;;;;14.18;68.12;98452.16;5017070;28;19925;-69
2021/10/02 11:58:44;;;;;;;;;;;;;;;14.41;66.01;98457.25;5042950;28;19917;-71
2021/10/02 12:01:17;;;;;;;;;;;;;;;14.29;66.19;98443.91;5015065;28;19948;-67
2021/10/02 12:03:42;;;;;;;;;;;;;;;14.14;66.16;98442.97;5016081;28;19929;-67
2021/10/02 12:06:08;;;;;;;;;;;;;;;13.73;66.08;98445.22;5022764;28;19917;-67
2021/10/02 12:08:34;;;;;;;;;;;;;;;13.34;66.99;98445.31;5019531;28;20258;-68
2021/10/02 12:11:04;;;;;;;;;;;;;;;13.02;67.97;98437.84;5035248;28;20385;-68
2021/10/02 12:13:29;;;;;;;;;;;;;;;12.81;69.59;98438.59;5025414;28;19913;-68
2021/10/02 12:16:01;;;;;;;;;;;;;;;12.81;69.62;98438.59;5028764;28;19969;-68
2021/10/02 12:18:46;;;;;;;;;;;;;;;12.81;68.60;98434.03;5054844;28;19958;-67
2021/10/02 12:21:12;;;;;;;;;;;;;;;12.83;68.15;98434.56;5037949;28;20211;-68
2021/10/02 12:23:55;;;;;;;;;;;;;;;12.76;67.01;98433.97;5031638;28;19966;-68
2021/10/02 12:26:21;;;;;;;;;;;;;;;12.87;67.29;98433.03;5012347;28;20019;-67
2021/10/02 12:28:48;;;;;;;;;;;;;;;13.11;66.10;98424.72;5029370;28;19917;-67
2021/10/02 12:31:13;;;;;;;;;;;;;;;13.24;64.57;98429.75;5021346;28;19913;-67
2021/10/02 12:33:39;;;;;;;;;;;;;;;13.35;63.99;98431.56;5023118;28;19963;-69
2021/10/02 12:36:05;;;;;;;;;;;;;;;13.73;63.05;98426.31;5036545;28;19917;-69
2021/10/02 12:38:43;;;;;;;;;;;;;;;13.70;60.04;98419.53;5021365;28;19939;-67
2021/10/02 12:41:09;;;;;;;;;;;;;;;13.45;61.58;98432.75;5013070;28;19952;-69
2021/10/02 12:43:34;;;;;;;;;;;;;;;13.16;63.51;98436.41;5023640;28;19978;-68
2021/10/02 12:46:00;;;;;;;;;;;;;;;13.03;64.05;98436.75;5033275;28;19962;-68
2021/10/02 12:48:26;;;;;;;;;;;;;;;12.99;64.46;98435.63;5020479;28;20289;-67
2021/10/02 12:50:51;;;;;;;;;;;;;;;13.07;63.97;98426.28;5018274;28;19917;-68
2021/10/02 12:53:20;;;;;;;;;;;;;;;13.00;64.07;98428.38;5022676;28;19962;-67
2021/10/02 12:55:45;;;;;;;;;;;;;;;12.97;64.00;98427.78;5018309;28;19917;-68
2021/10/02 12:58:16;;;;;;;;;;;;;;;13.17;64.01;98421.84;5023885;28;19924;-68
2021/10/02 13:00:41;;;;;;;;;;;;;;;13.24;63.87;98418.97;5031916;28;19920;-70
2021/10/02 13:03:09;;;;;;;;;;;;;;;13.24;62.87;98416.28;5021384;28;19917;-66
2021/10/02 13:05:36;;;;;;;;;;;;;;;13.29;63.12;98418.25;5014229;28;19924;-68
2021/10/02 13:08:22;;;;;;;;;;;;;;;13.32;61.54;98412.34;5026962;28;19939;-67
2021/10/02 13:10:48;;;;;;;;;;;;;;;13.33;61.92;98424.78;5034633;28;20334;-68
2021/10/02 13:13:15;;;;;;;;;;;;;;;13.16;62.32;98431.00;5020982;28;20452;-67
2021/10/02 13:15:41;;;;;;;;;;;;;;;12.84;63.48;98430.84;5021499;28;19924;-69
2021/10/02 13:18:07;;;;;;;;;;;;;;;12.39;64.49;98430.94;5022280;28;19913;-67
2021/10/02 13:20:35;;;;;;;;;;;;;;;12.05;65.99;98420.13;5036154;28;20337;-67
2021/10/02 13:23:05;;;;;;;;;;;;;;;11.85;67.69;98410.59;5009932;28;19958;-69
2021/10/02 13:25:30;;;;;;;;;;;;;;;11.84;67.86;98419.72;5019680;28;20308;-69
2021/10/02 13:27:56;;;;;;;;;;;;;;;12.02;68.51;98415.22;5016366;28;19916;-66
2021/10/02 13:30:32;;;;;;;;;;;;;;;12.09;69.08;98413.19;5020491;28;20428;-67
2021/10/02 13:33:09;;;;;;;;;;;;;;;12.17;69.12;98391.25;5019883;28;19923;-67
2021/10/02 13:35:36;;;;;;;;;;;;;;;12.32;69.15;98391.47;5024945;28;20406;-67
2021/10/02 13:38:03;;;;;;;;;;;;;;;12.53;68.28;98387.22;5014330;28;20354;-67
2021/10/02 13:40:31;;;;;;;;;;;;;;;12.57;67.60;98384.03;5037569;28;19920;-67
2021/10/02 13:42:57;;;;;;;;;;;;;;;12.73;68.04;98377.81;5016094;28;19949;-68
2021/10/02 13:45:23;;;;;;;;;;;;;;;12.83;67.65;98369.03;5013067;28;20018;-66
2021/10/02 13:47:56;;;;;;;;;;;;;;;12.86;67.28;98372.09;5018354;28;19917;-68
2021/10/02 13:50:21;;;;;;;;;;;;;;;12.89;67.71;98371.56;5039822;28;20369;-69